sensor_id;sensor_type;location;lat;lon;timestamp;P1;durP1;ratioP1;P2;durP2;ratioP2
17052;SDS011;8643;48.824;11.422;2024-02-15T00:00:22;16.97;;;10.40;;
17052;SDS011;8643;48.824;11.422;2024-02-15T00:02:54;15.97;;;10.90;;
17052;SDS011;8643;48.824;11.422;2024-02-15T00:05:40;17.03;;;11.00;;
17052;SDS011;8643;48.824;11.422;2024-02-15T00:08:11;16.67;;;10.13;;
17052;SDS011;8643;48.824;11.422;2024-02-15T00:10:43;18.47;;;10.90;;
17052;SDS011;8643;48.824;11.422;2024-02-15T00:13:13;15.43;;;9.20;;
17052;SDS011;8643;48.824;11.422;2024-02-15T00:15:41;14.37;;;8.33;;
17052;SDS011;8643;48.824;11.422;2024-02-15T00:18:10;16.03;;;8.77;;
17052;SDS011;8643;48.824;11.422;2024-02-15T00:20:39;14.50;;;9.27;;
17052;SDS011;8643;48.824;11.422;2024-02-15T00:23:09;18.13;;;9.90;;
17052;SDS011;8643;48.824;11.422;2024-02-15T00:25:38;13.70;;;8.80;;
17052;SDS011;8643;48.824;11.422;2024-02-15T00:28:13;15.70;;;9.00;;
17052;SDS011;8643;48.824;11.422;2024-02-15T00:30:41;15.23;;;9.00;;
17052;SDS011;8643;48.824;11.422;2024-02-15T00:33:10;15.60;;;9.43;;
17052;SDS011;8643;48.824;11.422;2024-02-15T00:35:39;17.13;;;10.47;;
17052;SDS011;8643;48.824;11.422;2024-02-15T00:38:08;15.83;;;10.27;;
17052;SDS011;8643;48.824;11.422;2024-02-15T00:40:37;17.93;;;11.20;;
17052;SDS011;8643;48.824;11.422;2024-02-15T00:43:06;17.70;;;10.67;;
17052;SDS011;8643;48.824;11.422;2024-02-15T00:45:36;18.87;;;10.70;;
17052;SDS011;8643;48.824;11.422;2024-02-15T00:48:05;17.07;;;10.43;;
17052;SDS011;8643;48.824;11.422;2024-02-15T00:50:34;15.57;;;10.23;;
17052;SDS011;8643;48.824;11.422;2024-02-15T00:53:03;17.53;;;11.07;;
17052;SDS011;8643;48.824;11.422;2024-02-15T00:55:32;19.43;;;11.20;;
17052;SDS011;8643;48.824;11.422;2024-02-15T00:58:01;15.93;;;11.07;;
17052;SDS011;8643;48.824;11.422;2024-02-15T01:00:30;18.10;;;10.30;;
17052;SDS011;8643;48.824;11.422;2024-02-15T01:02:59;22.57;;;11.00;;
17052;SDS011;8643;48.824;11.422;2024-02-15T01:05:28;20.50;;;11.47;;
17052;SDS011;8643;48.824;11.422;2024-02-15T01:07:57;17.50;;;10.20;;
17052;SDS011;8643;48.824;11.422;2024-02-15T01:10:26;17.40;;;10.30;;
17052;SDS011;8643;48.824;11.422;2024-02-15T01:12:55;17.00;;;10.50;;
17052;SDS011;8643;48.824;11.422;2024-02-15T01:15:23;17.83;;;10.60;;
17052;SDS011;8643;48.824;11.422;2024-02-15T01:17:52;16.20;;;9.43;;
17052;SDS011;8643;48.824;11.422;2024-02-15T01:20:22;17.13;;;10.77;;
17052;SDS011;8643;48.824;11.422;2024-02-15T01:22:50;13.33;;;8.60;;
17052;SDS011;8643;48.824;11.422;2024-02-15T01:25:19;19.13;;;10.87;;
17052;SDS011;8643;48.824;11.422;2024-02-15T01:27:47;16.53;;;9.90;;
17052;SDS011;8643;48.824;11.422;2024-02-15T01:30:17;14.43;;;9.33;;
17052;SDS011;8643;48.824;11.422;2024-02-15T01:32:46;18.40;;;10.53;;
17052;SDS011;8643;48.824;11.422;2024-02-15T01:35:15;15.83;;;10.57;;
17052;SDS011;8643;48.824;11.422;2024-02-15T01:37:45;15.23;;;9.67;;
17052;SDS011;8643;48.824;11.422;2024-02-15T01:40:14;20.43;;;10.90;;
17052;SDS011;8643;48.824;11.422;2024-02-15T01:42:45;16.50;;;10.23;;
17052;SDS011;8643;48.824;11.422;2024-02-15T01:45:16;22.10;;;11.97;;
17052;SDS011;8643;48.824;11.422;2024-02-15T01:47:46;19.27;;;11.73;;
17052;SDS011;8643;48.824;11.422;2024-02-15T01:50:15;24.07;;;12.03;;
17052;SDS011;8643;48.824;11.422;2024-02-15T01:52:47;23.77;;;12.10;;
17052;SDS011;8643;48.824;11.422;2024-02-15T01:55:22;19.23;;;11.97;;
17052;SDS011;8643;48.824;11.422;2024-02-15T01:57:53;17.33;;;10.50;;
17052;SDS011;8643;48.824;11.422;2024-02-15T02:00:22;18.50;;;11.23;;
17052;SDS011;8643;48.824;11.422;2024-02-15T02:02:51;18.03;;;11.00;;
17052;SDS011;8643;48.824;11.422;2024-02-15T02:05:26;18.47;;;11.27;;
17052;SDS011;8643;48.824;11.422;2024-02-15T02:07:57;23.30;;;12.97;;
17052;SDS011;8643;48.824;11.422;2024-02-15T02:10:31;17.87;;;11.80;;
17052;SDS011;8643;48.824;11.422;2024-02-15T02:13:00;16.60;;;11.70;;
17052;SDS011;8643;48.824;11.422;2024-02-15T02:15:29;20.40;;;12.47;;
17052;SDS011;8643;48.824;11.422;2024-02-15T02:18:00;22.27;;;13.13;;
17052;SDS011;8643;48.824;11.422;2024-02-15T02:20:29;21.47;;;13.17;;
17052;SDS011;8643;48.824;11.422;2024-02-15T02:23:00;23.83;;;12.67;;
17052;SDS011;8643;48.824;11.422;2024-02-15T02:25:38;20.23;;;12.20;;
17052;SDS011;8643;48.824;11.422;2024-02-15T02:28:08;24.37;;;13.10;;
17052;SDS011;8643;48.824;11.422;2024-02-15T02:30:38;17.33;;;12.07;;
17052;SDS011;8643;48.824;11.422;2024-02-15T02:33:10;19.40;;;11.87;;
17052;SDS011;8643;48.824;11.422;2024-02-15T02:35:47;18.90;;;11.57;;
17052;SDS011;8643;48.824;11.422;2024-02-15T02:38:16;18.40;;;12.10;;
17052;SDS011;8643;48.824;11.422;2024-02-15T02:40:46;21.47;;;11.97;;
17052;SDS011;8643;48.824;11.422;2024-02-15T02:43:14;17.60;;;11.80;;
17052;SDS011;8643;48.824;11.422;2024-02-15T02:45:43;20.10;;;11.27;;
17052;SDS011;8643;48.824;11.422;2024-02-15T02:48:12;17.80;;;11.03;;
17052;SDS011;8643;48.824;11.422;2024-02-15T02:50:41;15.17;;;10.73;;
17052;SDS011;8643;48.824;11.422;2024-02-15T02:53:09;20.53;;;11.63;;
17052;SDS011;8643;48.824;11.422;2024-02-15T02:55:40;17.37;;;10.50;;
17052;SDS011;8643;48.824;11.422;2024-02-15T02:58:10;18.30;;;11.73;;
17052;SDS011;8643;48.824;11.422;2024-02-15T03:00:39;22.23;;;13.40;;
17052;SDS011;8643;48.824;11.422;2024-02-15T03:03:09;18.30;;;11.67;;
17052;SDS011;8643;48.824;11.422;2024-02-15T03:05:37;16.07;;;11.27;;
17052;SDS011;8643;48.824;11.422;2024-02-15T03:08:08;22.20;;;11.70;;
17052;SDS011;8643;48.824;11.422;2024-02-15T03:10:37;22.93;;;13.03;;
17052;SDS011;8643;48.824;11.422;2024-02-15T03:13:07;17.30;;;11.60;;
17052;SDS011;8643;48.824;11.422;2024-02-15T03:15:38;17.53;;;11.60;;
17052;SDS011;8643;48.824;11.422;2024-02-15T03:18:08;16.23;;;10.97;;
17052;SDS011;8643;48.824;11.422;2024-02-15T03:20:37;18.73;;;12.00;;
17052;SDS011;8643;48.824;11.422;2024-02-15T03:23:05;15.70;;;10.47;;
17052;SDS011;8643;48.824;11.422;2024-02-15T03:25:34;17.23;;;10.70;;
17052;SDS011;8643;48.824;11.422;2024-02-15T03:28:03;18.10;;;10.50;;
17052;SDS011;8643;48.824;11.422;2024-02-15T03:30:32;18.53;;;11.07;;
17052;SDS011;8643;48.824;11.422;2024-02-15T03:33:03;16.17;;;10.57;;
17052;SDS011;8643;48.824;11.422;2024-02-15T03:35:33;18.27;;;10.33;;
17052;SDS011;8643;48.824;11.422;2024-02-15T03:38:02;16.87;;;10.03;;
17052;SDS011;8643;48.824;11.422;2024-02-15T03:40:31;16.90;;;10.90;;
17052;SDS011;8643;48.824;11.422;2024-02-15T03:43:00;14.40;;;10.50;;
17052;SDS011;8643;48.824;11.422;2024-02-15T03:45:33;21.67;;;10.90;;
17052;SDS011;8643;48.824;11.422;2024-02-15T03:48:04;18.57;;;10.57;;
17052;SDS011;8643;48.824;11.422;2024-02-15T03:50:34;21.87;;;11.87;;
17052;SDS011;8643;48.824;11.422;2024-02-15T03:53:02;18.50;;;11.63;;
17052;SDS011;8643;48.824;11.422;2024-02-15T03:55:35;15.53;;;10.77;;
17052;SDS011;8643;48.824;11.422;2024-02-15T03:58:03;19.50;;;11.43;;
17052;SDS011;8643;48.824;11.422;2024-02-15T04:00:31;18.60;;;11.87;;
17052;SDS011;8643;48.824;11.422;2024-02-15T04:03:00;15.60;;;10.80;;
17052;SDS011;8643;48.824;11.422;2024-02-15T04:05:30;18.57;;;11.50;;
17052;SDS011;8643;48.824;11.422;2024-02-15T04:07:59;17.03;;;10.70;;
17052;SDS011;8643;48.824;11.422;2024-02-15T04:10:29;17.50;;;11.10;;
17052;SDS011;8643;48.824;11.422;2024-02-15T04:12:57;18.10;;;10.90;;
17052;SDS011;8643;48.824;11.422;2024-02-15T04:15:26;17.93;;;10.67;;
17052;SDS011;8643;48.824;11.422;2024-02-15T04:17:54;16.47;;;9.97;;
17052;SDS011;8643;48.824;11.422;2024-02-15T04:20:24;15.30;;;9.93;;
17052;SDS011;8643;48.824;11.422;2024-02-15T04:22:54;21.30;;;10.87;;
17052;SDS011;8643;48.824;11.422;2024-02-15T04:25:24;17.67;;;10.27;;
17052;SDS011;8643;48.824;11.422;2024-02-15T04:27:54;15.27;;;10.57;;
17052;SDS011;8643;48.824;11.422;2024-02-15T04:30:24;18.13;;;9.80;;
17052;SDS011;8643;48.824;11.422;2024-02-15T04:32:53;22.37;;;10.87;;
17052;SDS011;8643;48.824;11.422;2024-02-15T04:35:21;15.83;;;10.03;;
17052;SDS011;8643;48.824;11.422;2024-02-15T04:37:50;17.37;;;10.03;;
17052;SDS011;8643;48.824;11.422;2024-02-15T04:40:21;15.50;;;9.90;;
17052;SDS011;8643;48.824;11.422;2024-02-15T04:42:49;16.33;;;10.10;;
17052;SDS011;8643;48.824;11.422;2024-02-15T04:45:18;15.77;;;9.60;;
17052;SDS011;8643;48.824;11.422;2024-02-15T04:47:48;14.40;;;9.33;;
17052;SDS011;8643;48.824;11.422;2024-02-15T04:50:19;17.37;;;9.30;;
17052;SDS011;8643;48.824;11.422;2024-02-15T04:52:47;15.17;;;8.87;;
17052;SDS011;8643;48.824;11.422;2024-02-15T04:55:16;15.63;;;9.20;;
17052;SDS011;8643;48.824;11.422;2024-02-15T04:57:46;15.63;;;9.00;;
17052;SDS011;8643;48.824;11.422;2024-02-15T05:00:15;12.13;;;8.33;;
17052;SDS011;8643;48.824;11.422;2024-02-15T05:02:48;14.43;;;8.43;;
17052;SDS011;8643;48.824;11.422;2024-02-15T05:05:16;12.87;;;8.37;;
17052;SDS011;8643;48.824;11.422;2024-02-15T05:07:45;16.47;;;9.30;;
17052;SDS011;8643;48.824;11.422;2024-02-15T05:10:15;17.00;;;9.53;;
17052;SDS011;8643;48.824;11.422;2024-02-15T05:12:44;14.37;;;8.63;;
17052;SDS011;8643;48.824;11.422;2024-02-15T05:15:16;14.43;;;9.53;;
17052;SDS011;8643;48.824;11.422;2024-02-15T05:17:45;13.80;;;8.43;;
17052;SDS011;8643;48.824;11.422;2024-02-15T05:20:15;12.87;;;8.60;;
17052;SDS011;8643;48.824;11.422;2024-02-15T05:22:44;14.57;;;8.90;;
17052;SDS011;8643;48.824;11.422;2024-02-15T05:25:16;16.60;;;8.83;;
17052;SDS011;8643;48.824;11.422;2024-02-15T05:27:51;17.77;;;8.63;;
17052;SDS011;8643;48.824;11.422;2024-02-15T05:30:24;14.60;;;8.67;;
17052;SDS011;8643;48.824;11.422;2024-02-15T05:32:53;15.87;;;9.37;;
17052;SDS011;8643;48.824;11.422;2024-02-15T05:35:23;15.33;;;10.13;;
17052;SDS011;8643;48.824;11.422;2024-02-15T05:37:53;21.17;;;10.17;;
17052;SDS011;8643;48.824;11.422;2024-02-15T05:40:22;20.40;;;10.17;;
17052;SDS011;8643;48.824;11.422;2024-02-15T05:42:54;18.57;;;11.33;;
17052;SDS011;8643;48.824;11.422;2024-02-15T05:45:30;16.50;;;9.33;;
17052;SDS011;8643;48.824;11.422;2024-02-15T05:48:04;13.93;;;9.17;;
17052;SDS011;8643;48.824;11.422;2024-02-15T05:50:35;18.27;;;10.07;;
17052;SDS011;8643;48.824;11.422;2024-02-15T05:53:04;16.30;;;9.83;;
17052;SDS011;8643;48.824;11.422;2024-02-15T05:55:34;15.20;;;9.10;;
17052;SDS011;8643;48.824;11.422;2024-02-15T05:58:04;19.53;;;10.00;;
17052;SDS011;8643;48.824;11.422;2024-02-15T06:00:37;16.57;;;9.57;;
17052;SDS011;8643;48.824;11.422;2024-02-15T06:03:07;14.30;;;9.67;;
17052;SDS011;8643;48.824;11.422;2024-02-15T06:05:37;14.03;;;9.23;;
17052;SDS011;8643;48.824;11.422;2024-02-15T06:08:09;15.60;;;8.73;;
17052;SDS011;8643;48.824;11.422;2024-02-15T06:10:39;13.03;;;8.67;;
17052;SDS011;8643;48.824;11.422;2024-02-15T06:13:08;19.33;;;9.97;;
17052;SDS011;8643;48.824;11.422;2024-02-15T06:15:37;13.80;;;8.90;;
17052;SDS011;8643;48.824;11.422;2024-02-15T06:18:06;12.77;;;8.43;;
17052;SDS011;8643;48.824;11.422;2024-02-15T06:20:38;13.10;;;8.17;;
17052;SDS011;8643;48.824;11.422;2024-02-15T06:23:07;13.90;;;8.57;;
17052;SDS011;8643;48.824;11.422;2024-02-15T06:25:35;13.10;;;8.83;;
17052;SDS011;8643;48.824;11.422;2024-02-15T06:28:04;16.23;;;8.93;;
17052;SDS011;8643;48.824;11.422;2024-02-15T06:30:47;17.50;;;9.63;;
17052;SDS011;8643;48.824;11.422;2024-02-15T06:33:33;17.10;;;9.60;;
17052;SDS011;8643;48.824;11.422;2024-02-15T06:36:19;14.43;;;8.73;;
17052;SDS011;8643;48.824;11.422;2024-02-15T06:39:06;13.33;;;9.20;;
17052;SDS011;8643;48.824;11.422;2024-02-15T06:41:52;15.17;;;9.07;;
17052;SDS011;8643;48.824;11.422;2024-02-15T06:44:20;17.30;;;9.47;;
17052;SDS011;8643;48.824;11.422;2024-02-15T06:46:52;15.30;;;9.33;;
17052;SDS011;8643;48.824;11.422;2024-02-15T06:49:20;18.77;;;10.63;;
17052;SDS011;8643;48.824;11.422;2024-02-15T06:51:49;16.83;;;10.10;;
17052;SDS011;8643;48.824;11.422;2024-02-15T06:54:18;17.00;;;10.30;;
17052;SDS011;8643;48.824;11.422;2024-02-15T06:56:46;16.73;;;9.60;;
17052;SDS011;8643;48.824;11.422;2024-02-15T06:59:15;13.83;;;9.33;;
17052;SDS011;8643;48.824;11.422;2024-02-15T07:01:45;15.63;;;9.37;;
17052;SDS011;8643;48.824;11.422;2024-02-15T07:04:15;17.23;;;9.90;;
17052;SDS011;8643;48.824;11.422;2024-02-15T07:06:43;15.77;;;9.87;;
17052;SDS011;8643;48.824;11.422;2024-02-15T07:09:14;15.67;;;9.50;;
17052;SDS011;8643;48.824;11.422;2024-02-15T07:11:46;14.03;;;9.17;;
17052;SDS011;8643;48.824;11.422;2024-02-15T07:14:17;16.43;;;9.57;;
17052;SDS011;8643;48.824;11.422;2024-02-15T07:16:46;15.43;;;9.00;;
17052;SDS011;8643;48.824;11.422;2024-02-15T07:19:18;14.30;;;8.43;;
17052;SDS011;8643;48.824;11.422;2024-02-15T07:21:47;14.40;;;8.63;;
17052;SDS011;8643;48.824;11.422;2024-02-15T07:24:17;13.87;;;7.70;;
17052;SDS011;8643;48.824;11.422;2024-02-15T07:26:47;14.47;;;8.47;;
17052;SDS011;8643;48.824;11.422;2024-02-15T07:29:19;15.60;;;8.60;;
17052;SDS011;8643;48.824;11.422;2024-02-15T07:31:49;15.20;;;8.80;;
17052;SDS011;8643;48.824;11.422;2024-02-15T07:34:19;13.80;;;8.87;;
17052;SDS011;8643;48.824;11.422;2024-02-15T07:36:49;16.43;;;8.97;;
17052;SDS011;8643;48.824;11.422;2024-02-15T07:39:18;14.27;;;9.57;;
17052;SDS011;8643;48.824;11.422;2024-02-15T07:41:50;18.30;;;10.93;;
17052;SDS011;8643;48.824;11.422;2024-02-15T07:44:19;17.17;;;10.17;;
17052;SDS011;8643;48.824;11.422;2024-02-15T07:46:48;18.00;;;11.47;;
17052;SDS011;8643;48.824;11.422;2024-02-15T07:49:18;17.43;;;11.07;;
17052;SDS011;8643;48.824;11.422;2024-02-15T07:51:49;17.97;;;11.83;;
17052;SDS011;8643;48.824;11.422;2024-02-15T07:54:20;17.83;;;11.40;;
17052;SDS011;8643;48.824;11.422;2024-02-15T07:56:49;20.07;;;11.70;;
17052;SDS011;8643;48.824;11.422;2024-02-15T07:59:18;22.03;;;13.13;;
17052;SDS011;8643;48.824;11.422;2024-02-15T08:01:47;25.27;;;16.07;;
17052;SDS011;8643;48.824;11.422;2024-02-15T08:04:17;19.43;;;13.37;;
17052;SDS011;8643;48.824;11.422;2024-02-15T08:06:47;22.20;;;15.37;;
17052;SDS011;8643;48.824;11.422;2024-02-15T08:09:19;19.80;;;14.25;;
17052;SDS011;8643;48.824;11.422;2024-02-15T08:11:50;21.25;;;13.75;;
17052;SDS011;8643;48.824;11.422;2024-02-15T08:14:19;15.23;;;11.40;;
17052;SDS011;8643;48.824;11.422;2024-02-15T08:16:47;16.45;;;11.85;;
17052;SDS011;8643;48.824;11.422;2024-02-15T08:19:16;11.80;;;8.80;;
17052;SDS011;8643;48.824;11.422;2024-02-15T08:21:46;12.35;;;7.85;;
17052;SDS011;8643;48.824;11.422;2024-02-15T08:24:17;12.73;;;8.07;;
17052;SDS011;8643;48.824;11.422;2024-02-15T08:26:46;12.18;;;8.10;;
17052;SDS011;8643;48.824;11.422;2024-02-15T08:29:15;10.98;;;7.43;;
17052;SDS011;8643;48.824;11.422;2024-02-15T08:31:43;11.45;;;7.47;;
17052;SDS011;8643;48.824;11.422;2024-02-15T08:34:11;9.55;;;7.00;;
17052;SDS011;8643;48.824;11.422;2024-02-15T08:36:41;9.05;;;6.72;;
17052;SDS011;8643;48.824;11.422;2024-02-15T08:39:10;10.05;;;6.47;;
17052;SDS011;8643;48.824;11.422;2024-02-15T08:41:39;9.13;;;6.38;;
17052;SDS011;8643;48.824;11.422;2024-02-15T08:44:08;9.32;;;6.47;;
17052;SDS011;8643;48.824;11.422;2024-02-15T08:46:42;8.05;;;5.88;;
17052;SDS011;8643;48.824;11.422;2024-02-15T08:49:10;12.00;;;6.40;;
17052;SDS011;8643;48.824;11.422;2024-02-15T08:51:40;9.18;;;6.00;;
17052;SDS011;8643;48.824;11.422;2024-02-15T08:54:10;9.55;;;5.97;;
17052;SDS011;8643;48.824;11.422;2024-02-15T08:56:39;6.93;;;4.70;;
17052;SDS011;8643;48.824;11.422;2024-02-15T08:59:07;7.90;;;5.88;;
17052;SDS011;8643;48.824;11.422;2024-02-15T09:01:35;8.43;;;5.05;;
17052;SDS011;8643;48.824;11.422;2024-02-15T09:04:06;6.82;;;5.00;;
17052;SDS011;8643;48.824;11.422;2024-02-15T09:06:34;9.70;;;5.40;;
17052;SDS011;8643;48.824;11.422;2024-02-15T09:09:03;9.40;;;4.97;;
17052;SDS011;8643;48.824;11.422;2024-02-15T09:11:33;6.30;;;4.60;;
17052;SDS011;8643;48.824;11.422;2024-02-15T09:14:02;8.00;;;5.43;;
17052;SDS011;8643;48.824;11.422;2024-02-15T09:16:31;7.55;;;5.38;;
17052;SDS011;8643;48.824;11.422;2024-02-15T09:19:00;10.18;;;5.38;;
17052;SDS011;8643;48.824;11.422;2024-02-15T09:21:29;10.32;;;5.45;;
17052;SDS011;8643;48.824;11.422;2024-02-15T09:23:59;7.10;;;5.20;;
17052;SDS011;8643;48.824;11.422;2024-02-15T09:26:28;8.15;;;4.93;;
17052;SDS011;8643;48.824;11.422;2024-02-15T09:28:58;6.35;;;4.88;;
17052;SDS011;8643;48.824;11.422;2024-02-15T09:31:29;7.72;;;5.07;;
17052;SDS011;8643;48.824;11.422;2024-02-15T09:33:58;7.05;;;5.07;;
17052;SDS011;8643;48.824;11.422;2024-02-15T09:36:26;7.53;;;4.90;;
17052;SDS011;8643;48.824;11.422;2024-02-15T09:38:55;6.93;;;4.72;;
17052;SDS011;8643;48.824;11.422;2024-02-15T09:41:25;6.10;;;4.35;;
17052;SDS011;8643;48.824;11.422;2024-02-15T09:43:54;7.28;;;4.57;;
17052;SDS011;8643;48.824;11.422;2024-02-15T09:46:24;5.75;;;3.80;;
17052;SDS011;8643;48.824;11.422;2024-02-15T09:48:55;5.55;;;3.85;;
17052;SDS011;8643;48.824;11.422;2024-02-15T09:51:26;8.52;;;4.25;;
17052;SDS011;8643;48.824;11.422;2024-02-15T09:53:57;6.28;;;4.22;;
17052;SDS011;8643;48.824;11.422;2024-02-15T09:56:27;6.43;;;4.25;;
17052;SDS011;8643;48.824;11.422;2024-02-15T09:58:59;5.32;;;4.25;;
17052;SDS011;8643;48.824;11.422;2024-02-15T10:01:30;7.30;;;4.78;;
17052;SDS011;8643;48.824;11.422;2024-02-15T10:04:01;7.50;;;4.50;;
17052;SDS011;8643;48.824;11.422;2024-02-15T10:06:34;7.93;;;5.00;;
17052;SDS011;8643;48.824;11.422;2024-02-15T10:11:57;7.80;;;4.80;;
17052;SDS011;8643;48.824;11.422;2024-02-15T10:14:27;7.05;;;4.68;;
17052;SDS011;8643;48.824;11.422;2024-02-15T10:17:00;9.52;;;5.05;;
17052;SDS011;8643;48.824;11.422;2024-02-15T10:19:36;6.95;;;4.80;;
17052;SDS011;8643;48.824;11.422;2024-02-15T10:22:05;6.60;;;4.53;;
17052;SDS011;8643;48.824;11.422;2024-02-15T10:24:36;8.18;;;4.30;;
17052;SDS011;8643;48.824;11.422;2024-02-15T10:27:06;6.25;;;4.55;;
17052;SDS011;8643;48.824;11.422;2024-02-15T10:29:37;6.65;;;4.10;;
17052;SDS011;8643;48.824;11.422;2024-02-15T10:32:08;5.45;;;4.00;;
17052;SDS011;8643;48.824;11.422;2024-02-15T10:34:43;5.95;;;3.90;;
17052;SDS011;8643;48.824;11.422;2024-02-15T10:37:13;5.20;;;3.92;;
17052;SDS011;8643;48.824;11.422;2024-02-15T10:39:45;6.38;;;4.10;;
17052;SDS011;8643;48.824;11.422;2024-02-15T10:42:14;6.60;;;4.05;;
17052;SDS011;8643;48.824;11.422;2024-02-15T10:44:45;6.55;;;4.30;;
17052;SDS011;8643;48.824;11.422;2024-02-15T10:47:17;6.95;;;4.20;;
17052;SDS011;8643;48.824;11.422;2024-02-15T10:49:47;8.38;;;4.03;;
17052;SDS011;8643;48.824;11.422;2024-02-15T10:52:16;6.85;;;4.10;;
17052;SDS011;8643;48.824;11.422;2024-02-15T10:54:52;6.35;;;4.18;;
17052;SDS011;8643;48.824;11.422;2024-02-15T10:57:31;8.68;;;4.20;;
17052;SDS011;8643;48.824;11.422;2024-02-15T11:00:00;6.15;;;3.60;;
17052;SDS011;8643;48.824;11.422;2024-02-15T11:02:39;6.30;;;4.05;;
17052;SDS011;8643;48.824;11.422;2024-02-15T11:05:14;6.70;;;4.47;;
17052;SDS011;8643;48.824;11.422;2024-02-15T11:07:50;6.57;;;4.25;;
17052;SDS011;8643;48.824;11.422;2024-02-15T11:10:20;5.32;;;3.63;;
17052;SDS011;8643;48.824;11.422;2024-02-15T11:12:50;6.13;;;3.58;;
17052;SDS011;8643;48.824;11.422;2024-02-15T11:21:21;6.53;;;4.38;;
17052;SDS011;8643;48.824;11.422;2024-02-15T11:24:26;6.38;;;4.07;;
17052;SDS011;8643;48.824;11.422;2024-02-15T11:26:58;7.93;;;3.63;;
17052;SDS011;8643;48.824;11.422;2024-02-15T11:29:49;6.18;;;2.92;;
17052;SDS011;8643;48.824;11.422;2024-02-15T11:32:36;6.40;;;3.38;;
17052;SDS011;8643;48.824;11.422;2024-02-15T11:35:12;5.15;;;2.92;;
17052;SDS011;8643;48.824;11.422;2024-02-15T11:37:53;6.18;;;3.00;;
17052;SDS011;8643;48.824;11.422;2024-02-15T11:40:28;3.95;;;2.53;;
17052;SDS011;8643;48.824;11.422;2024-02-15T11:43:46;5.80;;;3.13;;
17052;SDS011;8643;48.824;11.422;2024-02-15T11:46:25;5.18;;;3.20;;
17052;SDS011;8643;48.824;11.422;2024-02-15T11:48:57;5.10;;;3.10;;
17052;SDS011;8643;48.824;11.422;2024-02-15T11:51:30;5.40;;;3.15;;
17052;SDS011;8643;48.824;11.422;2024-02-15T11:54:04;4.00;;;2.88;;
17052;SDS011;8643;48.824;11.422;2024-02-15T11:56:51;4.53;;;2.95;;
17052;SDS011;8643;48.824;11.422;2024-02-15T11:59:40;5.05;;;2.80;;
17052;SDS011;8643;48.824;11.422;2024-02-15T12:02:44;4.85;;;2.67;;
17052;SDS011;8643;48.824;11.422;2024-02-15T12:05:30;4.72;;;3.00;;
17052;SDS011;8643;48.824;11.422;2024-02-15T12:08:18;4.78;;;2.60;;
17052;SDS011;8643;48.824;11.422;2024-02-15T12:11:04;4.05;;;2.38;;
17052;SDS011;8643;48.824;11.422;2024-02-15T12:13:50;5.30;;;2.53;;
17052;SDS011;8643;48.824;11.422;2024-02-15T12:16:36;4.63;;;3.00;;
17052;SDS011;8643;48.824;11.422;2024-02-15T12:19:23;4.05;;;2.10;;
17052;SDS011;8643;48.824;11.422;2024-02-15T12:21:51;4.18;;;2.30;;
17052;SDS011;8643;48.824;11.422;2024-02-15T12:24:23;3.15;;;2.10;;
17052;SDS011;8643;48.824;11.422;2024-02-15T12:26:59;4.68;;;2.03;;
17052;SDS011;8643;48.824;11.422;2024-02-15T12:29:30;5.15;;;1.90;;
17052;SDS011;8643;48.824;11.422;2024-02-15T12:31:59;2.80;;;1.60;;
17052;SDS011;8643;48.824;11.422;2024-02-15T12:34:27;3.13;;;1.60;;
17052;SDS011;8643;48.824;11.422;2024-02-15T12:37:05;3.90;;;1.63;;
17052;SDS011;8643;48.824;11.422;2024-02-15T12:39:37;4.18;;;1.90;;
17052;SDS011;8643;48.824;11.422;2024-02-15T12:42:07;7.88;;;2.17;;
17052;SDS011;8643;48.824;11.422;2024-02-15T12:44:36;5.45;;;1.55;;
17052;SDS011;8643;48.824;11.422;2024-02-15T12:47:21;3.50;;;1.63;;
17052;SDS011;8643;48.824;11.422;2024-02-15T12:49:51;2.60;;;1.45;;
17052;SDS011;8643;48.824;11.422;2024-02-15T12:52:33;3.33;;;1.50;;
17052;SDS011;8643;48.824;11.422;2024-02-15T12:55:14;2.58;;;1.50;;
17052;SDS011;8643;48.824;11.422;2024-02-15T12:57:47;3.45;;;1.55;;
17052;SDS011;8643;48.824;11.422;2024-02-15T13:00:18;4.10;;;1.52;;
17052;SDS011;8643;48.824;11.422;2024-02-15T13:02:49;3.17;;;1.55;;
17052;SDS011;8643;48.824;11.422;2024-02-15T13:05:19;3.33;;;1.58;;
17052;SDS011;8643;48.824;11.422;2024-02-15T13:07:49;4.30;;;1.58;;
17052;SDS011;8643;48.824;11.422;2024-02-15T13:10:22;2.75;;;1.58;;
17052;SDS011;8643;48.824;11.422;2024-02-15T13:12:52;3.40;;;1.60;;
17052;SDS011;8643;48.824;11.422;2024-02-15T13:15:22;2.35;;;1.35;;
17052;SDS011;8643;48.824;11.422;2024-02-15T13:17:59;4.18;;;1.55;;
17052;SDS011;8643;48.824;11.422;2024-02-15T13:20:32;3.33;;;1.60;;
17052;SDS011;8643;48.824;11.422;2024-02-15T13:23:02;3.17;;;1.52;;
17052;SDS011;8643;48.824;11.422;2024-02-15T13:25:38;10.00;;;1.85;;
17052;SDS011;8643;48.824;11.422;2024-02-15T13:28:07;3.00;;;1.42;;
17052;SDS011;8643;48.824;11.422;2024-02-15T13:30:40;2.40;;;1.42;;
17052;SDS011;8643;48.824;11.422;2024-02-15T13:33:11;5.50;;;1.70;;
17052;SDS011;8643;48.824;11.422;2024-02-15T13:35:41;6.63;;;1.60;;
17052;SDS011;8643;48.824;11.422;2024-02-15T13:38:11;2.92;;;1.48;;
17052;SDS011;8643;48.824;11.422;2024-02-15T13:40:51;3.35;;;1.40;;
17052;SDS011;8643;48.824;11.422;2024-02-15T13:43:22;3.40;;;1.50;;
17052;SDS011;8643;48.824;11.422;2024-02-15T13:45:51;2.58;;;1.40;;
17052;SDS011;8643;48.824;11.422;2024-02-15T13:48:20;4.20;;;1.42;;
17052;SDS011;8643;48.824;11.422;2024-02-15T13:50:51;4.13;;;1.38;;
17052;SDS011;8643;48.824;11.422;2024-02-15T13:53:20;5.32;;;2.28;;
17052;SDS011;8643;48.824;11.422;2024-02-15T13:55:53;7.68;;;3.97;;
17052;SDS011;8643;48.824;11.422;2024-02-15T13:58:21;4.78;;;2.28;;
17052;SDS011;8643;48.824;11.422;2024-02-15T14:00:50;4.53;;;2.20;;
17052;SDS011;8643;48.824;11.422;2024-02-15T14:03:19;2.50;;;2.03;;
17052;SDS011;8643;48.824;11.422;2024-02-15T14:05:49;3.97;;;1.70;;
17052;SDS011;8643;48.824;11.422;2024-02-15T14:08:17;2.80;;;1.60;;
17052;SDS011;8643;48.824;11.422;2024-02-15T14:10:47;3.15;;;1.40;;
17052;SDS011;8643;48.824;11.422;2024-02-15T14:13:17;1.67;;;1.17;;
17052;SDS011;8643;48.824;11.422;2024-02-15T14:15:48;3.38;;;1.30;;
17052;SDS011;8643;48.824;11.422;2024-02-15T14:18:17;2.42;;;1.10;;
17052;SDS011;8643;48.824;11.422;2024-02-15T14:20:46;2.25;;;1.35;;
17052;SDS011;8643;48.824;11.422;2024-02-15T14:23:16;4.65;;;1.50;;
17052;SDS011;8643;48.824;11.422;2024-02-15T14:25:44;4.28;;;1.35;;
17052;SDS011;8643;48.824;11.422;2024-02-15T14:28:13;2.85;;;1.20;;
17052;SDS011;8643;48.824;11.422;2024-02-15T14:30:43;2.83;;;1.50;;
17052;SDS011;8643;48.824;11.422;2024-02-15T14:33:29;4.00;;;1.52;;
17052;SDS011;8643;48.824;11.422;2024-02-15T14:36:02;4.55;;;1.70;;
17052;SDS011;8643;48.824;11.422;2024-02-15T14:38:32;4.30;;;1.73;;
17052;SDS011;8643;48.824;11.422;2024-02-15T14:41:01;3.05;;;1.38;;
17052;SDS011;8643;48.824;11.422;2024-02-15T14:43:34;3.95;;;1.70;;
17052;SDS011;8643;48.824;11.422;2024-02-15T14:46:05;2.88;;;1.50;;
17052;SDS011;8643;48.824;11.422;2024-02-15T14:48:34;4.30;;;1.40;;
17052;SDS011;8643;48.824;11.422;2024-02-15T14:51:07;2.70;;;1.50;;
17052;SDS011;8643;48.824;11.422;2024-02-15T14:53:36;4.15;;;1.67;;
17052;SDS011;8643;48.824;11.422;2024-02-15T14:56:05;6.13;;;1.83;;
17052;SDS011;8643;48.824;11.422;2024-02-15T14:58:34;6.15;;;1.70;;
17052;SDS011;8643;48.824;11.422;2024-02-15T15:01:04;4.63;;;1.50;;
17052;SDS011;8643;48.824;11.422;2024-02-15T15:03:36;2.17;;;1.50;;
17052;SDS011;8643;48.824;11.422;2024-02-15T15:06:06;3.55;;;1.55;;
17052;SDS011;8643;48.824;11.422;2024-02-15T15:08:54;5.60;;;1.70;;